sensor_id;sensor_type;location;lat;lon;timestamp;P1;durP1;ratioP1;P2;durP2;ratioP2
75456;SDS011;64036;48.266;14.192;2023-05-29T00:00:36;7.50;;;3.80;;
75456;SDS011;64036;48.266;14.192;2023-05-29T00:03:10;7.00;;;4.00;;
75456;SDS011;64036;48.266;14.192;2023-05-29T00:05:39;6.80;;;3.80;;
75456;SDS011;64036;48.266;14.192;2023-05-29T00:08:05;8.20;;;4.00;;
75456;SDS011;64036;48.266;14.192;2023-05-29T00:10:34;7.30;;;3.90;;
75456;SDS011;64036;48.266;14.192;2023-05-29T00:15:29;7.20;;;3.70;;
75456;SDS011;64036;48.266;14.192;2023-05-29T00:17:55;6.20;;;3.50;;
75456;SDS011;64036;48.266;14.192;2023-05-29T00:20:24;7.40;;;4.00;;
75456;SDS011;64036;48.266;14.192;2023-05-29T00:22:49;8.20;;;4.00;;
75456;SDS011;64036;48.266;14.192;2023-05-29T00:25:16;7.30;;;3.80;;
75456;SDS011;64036;48.266;14.192;2023-05-29T00:27:41;7.70;;;3.50;;
75456;SDS011;64036;48.266;14.192;2023-05-29T00:30:10;7.20;;;3.90;;
75456;SDS011;64036;48.266;14.192;2023-05-29T00:32:45;6.30;;;3.40;;
75456;SDS011;64036;48.266;14.192;2023-05-29T00:35:13;6.20;;;3.60;;
75456;SDS011;64036;48.266;14.192;2023-05-29T00:37:42;6.40;;;3.50;;
75456;SDS011;64036;48.266;14.192;2023-05-29T00:40:08;8.50;;;3.50;;
75456;SDS011;64036;48.266;14.192;2023-05-29T00:42:34;6.50;;;3.30;;
75456;SDS011;64036;48.266;14.192;2023-05-29T00:45:03;6.10;;;3.50;;
75456;SDS011;64036;48.266;14.192;2023-05-29T00:47:29;6.10;;;3.30;;
75456;SDS011;64036;48.266;14.192;2023-05-29T00:50:01;8.50;;;3.60;;
75456;SDS011;64036;48.266;14.192;2023-05-29T00:52:28;6.80;;;3.30;;
75456;SDS011;64036;48.266;14.192;2023-05-29T00:55:00;6.10;;;3.10;;
75456;SDS011;64036;48.266;14.192;2023-05-29T00:57:30;7.40;;;3.10;;
75456;SDS011;64036;48.266;14.192;2023-05-29T00:59:57;7.00;;;3.40;;
75456;SDS011;64036;48.266;14.192;2023-05-29T01:02:24;7.40;;;3.40;;
75456;SDS011;64036;48.266;14.192;2023-05-29T01:04:54;7.50;;;3.20;;
75456;SDS011;64036;48.266;14.192;2023-05-29T01:07:21;7.30;;;3.50;;
75456;SDS011;64036;48.266;14.192;2023-05-29T01:09:47;7.60;;;3.60;;
75456;SDS011;64036;48.266;14.192;2023-05-29T01:12:36;6.80;;;3.50;;
75456;SDS011;64036;48.266;14.192;2023-05-29T01:21:18;9.10;;;3.90;;
75456;SDS011;64036;48.266;14.192;2023-05-29T01:27:03;6.90;;;3.80;;
75456;SDS011;64036;48.266;14.192;2023-05-29T01:29:44;7.50;;;3.90;;
75456;SDS011;64036;48.266;14.192;2023-05-29T01:32:18;7.80;;;4.00;;
75456;SDS011;64036;48.266;14.192;2023-05-29T01:34:45;8.80;;;3.60;;
75456;SDS011;64036;48.266;14.192;2023-05-29T01:37:13;6.20;;;3.70;;
75456;SDS011;64036;48.266;14.192;2023-05-29T01:39:42;6.10;;;3.70;;
75456;SDS011;64036;48.266;14.192;2023-05-29T01:42:08;11.00;;;4.00;;
75456;SDS011;64036;48.266;14.192;2023-05-29T01:44:35;7.50;;;3.90;;
75456;SDS011;64036;48.266;14.192;2023-05-29T01:47:02;6.30;;;3.30;;
75456;SDS011;64036;48.266;14.192;2023-05-29T01:49:29;7.90;;;4.00;;
75456;SDS011;64036;48.266;14.192;2023-05-29T01:52:00;7.50;;;4.10;;
75456;SDS011;64036;48.266;14.192;2023-05-29T01:54:36;8.30;;;3.60;;
75456;SDS011;64036;48.266;14.192;2023-05-29T01:57:02;7.20;;;3.80;;
75456;SDS011;64036;48.266;14.192;2023-05-29T01:59:40;7.60;;;4.20;;
75456;SDS011;64036;48.266;14.192;2023-05-29T02:02:08;9.10;;;3.90;;
75456;SDS011;64036;48.266;14.192;2023-05-29T02:04:40;7.20;;;4.00;;
75456;SDS011;64036;48.266;14.192;2023-05-29T02:07:06;6.60;;;4.10;;
75456;SDS011;64036;48.266;14.192;2023-05-29T02:09:33;6.70;;;3.70;;
75456;SDS011;64036;48.266;14.192;2023-05-29T02:12:02;7.70;;;4.70;;
75456;SDS011;64036;48.266;14.192;2023-05-29T02:14:32;8.60;;;4.10;;
75456;SDS011;64036;48.266;14.192;2023-05-29T02:19:32;7.30;;;3.50;;
75456;SDS011;64036;48.266;14.192;2023-05-29T02:21:58;7.60;;;3.90;;
75456;SDS011;64036;48.266;14.192;2023-05-29T02:24:27;8.30;;;3.70;;
75456;SDS011;64036;48.266;14.192;2023-05-29T02:26:56;6.40;;;3.70;;
75456;SDS011;64036;48.266;14.192;2023-05-29T02:29:22;8.60;;;3.90;;
75456;SDS011;64036;48.266;14.192;2023-05-29T02:31:59;6.60;;;3.60;;
75456;SDS011;64036;48.266;14.192;2023-05-29T02:34:25;7.80;;;3.70;;
75456;SDS011;64036;48.266;14.192;2023-05-29T02:36:52;7.00;;;3.70;;
75456;SDS011;64036;48.266;14.192;2023-05-29T02:39:20;7.30;;;4.10;;
75456;SDS011;64036;48.266;14.192;2023-05-29T02:41:53;7.60;;;3.80;;
75456;SDS011;64036;48.266;14.192;2023-05-29T02:44:25;9.20;;;4.10;;
75456;SDS011;64036;48.266;14.192;2023-05-29T02:46:51;7.70;;;4.00;;
75456;SDS011;64036;48.266;14.192;2023-05-29T02:49:19;6.80;;;3.60;;
75456;SDS011;64036;48.266;14.192;2023-05-29T02:51:56;7.00;;;3.80;;
75456;SDS011;64036;48.266;14.192;2023-05-29T02:54:25;10.50;;;4.00;;
75456;SDS011;64036;48.266;14.192;2023-05-29T02:56:57;9.20;;;3.80;;
75456;SDS011;64036;48.266;14.192;2023-05-29T02:59:23;9.40;;;3.80;;
75456;SDS011;64036;48.266;14.192;2023-05-29T03:01:54;7.10;;;3.90;;
75456;SDS011;64036;48.266;14.192;2023-05-29T03:04:26;7.60;;;3.40;;
75456;SDS011;64036;48.266;14.192;2023-05-29T03:07:02;6.80;;;3.60;;
75456;SDS011;64036;48.266;14.192;2023-05-29T03:09:32;6.90;;;3.90;;
75456;SDS011;64036;48.266;14.192;2023-05-29T03:12:03;6.20;;;3.20;;
75456;SDS011;64036;48.266;14.192;2023-05-29T03:14:36;7.30;;;3.80;;
75456;SDS011;64036;48.266;14.192;2023-05-29T03:17:13;6.50;;;3.90;;
75456;SDS011;64036;48.266;14.192;2023-05-29T03:19:42;7.90;;;3.30;;
75456;SDS011;64036;48.266;14.192;2023-05-29T03:22:10;8.10;;;3.80;;
75456;SDS011;64036;48.266;14.192;2023-05-29T03:24:39;7.90;;;4.10;;
75456;SDS011;64036;48.266;14.192;2023-05-29T03:27:07;9.70;;;4.10;;
75456;SDS011;64036;48.266;14.192;2023-05-29T03:29:36;7.40;;;4.10;;
75456;SDS011;64036;48.266;14.192;2023-05-29T03:32:10;9.30;;;4.20;;
75456;SDS011;64036;48.266;14.192;2023-05-29T03:34:38;7.80;;;4.00;;
75456;SDS011;64036;48.266;14.192;2023-05-29T03:37:15;5.80;;;3.60;;
75456;SDS011;64036;48.266;14.192;2023-05-29T03:39:49;8.10;;;4.10;;
75456;SDS011;64036;48.266;14.192;2023-05-29T03:42:26;6.90;;;3.90;;
75456;SDS011;64036;48.266;14.192;2023-05-29T03:44:52;7.40;;;4.50;;
75456;SDS011;64036;48.266;14.192;2023-05-29T03:47:20;7.70;;;4.20;;
75456;SDS011;64036;48.266;14.192;2023-05-29T03:49:48;8.40;;;4.20;;
75456;SDS011;64036;48.266;14.192;2023-05-29T03:52:17;7.60;;;3.80;;
75456;SDS011;64036;48.266;14.192;2023-05-29T03:54:42;7.90;;;4.10;;
75456;SDS011;64036;48.266;14.192;2023-05-29T03:57:11;8.60;;;4.40;;
75456;SDS011;64036;48.266;14.192;2023-05-29T03:59:44;7.70;;;4.40;;
75456;SDS011;64036;48.266;14.192;2023-05-29T04:02:13;9.50;;;4.60;;
75456;SDS011;64036;48.266;14.192;2023-05-29T04:04:39;7.30;;;4.40;;
75456;SDS011;64036;48.266;14.192;2023-05-29T04:07:08;8.30;;;4.40;;
75456;SDS011;64036;48.266;14.192;2023-05-29T04:09:33;10.80;;;5.00;;
75456;SDS011;64036;48.266;14.192;2023-05-29T04:12:00;9.30;;;4.90;;
75456;SDS011;64036;48.266;14.192;2023-05-29T04:14:27;8.70;;;5.50;;
75456;SDS011;64036;48.266;14.192;2023-05-29T04:16:54;8.50;;;5.10;;
75456;SDS011;64036;48.266;14.192;2023-05-29T04:19:19;8.80;;;5.10;;
75456;SDS011;64036;48.266;14.192;2023-05-29T04:21:46;9.30;;;4.50;;
75456;SDS011;64036;48.266;14.192;2023-05-29T04:24:14;7.90;;;4.90;;
75456;SDS011;64036;48.266;14.192;2023-05-29T04:26:40;8.80;;;4.70;;
75456;SDS011;64036;48.266;14.192;2023-05-29T04:29:09;9.00;;;5.20;;
75456;SDS011;64036;48.266;14.192;2023-05-29T04:31:35;8.50;;;4.90;;
75456;SDS011;64036;48.266;14.192;2023-05-29T04:34:02;7.90;;;5.00;;
75456;SDS011;64036;48.266;14.192;2023-05-29T04:36:30;7.90;;;4.50;;
75456;SDS011;64036;48.266;14.192;2023-05-29T04:38:58;8.00;;;5.00;;
75456;SDS011;64036;48.266;14.192;2023-05-29T04:41:24;7.10;;;4.70;;
75456;SDS011;64036;48.266;14.192;2023-05-29T04:43:57;6.70;;;4.70;;
75456;SDS011;64036;48.266;14.192;2023-05-29T04:46:24;8.80;;;4.70;;
75456;SDS011;64036;48.266;14.192;2023-05-29T04:48:51;9.10;;;5.00;;
75456;SDS011;64036;48.266;14.192;2023-05-29T04:51:20;9.40;;;5.60;;
75456;SDS011;64036;48.266;14.192;2023-05-29T04:53:47;8.50;;;4.90;;
75456;SDS011;64036;48.266;14.192;2023-05-29T04:56:14;8.30;;;4.50;;
75456;SDS011;64036;48.266;14.192;2023-05-29T04:58:40;8.20;;;4.90;;
75456;SDS011;64036;48.266;14.192;2023-05-29T05:01:07;8.10;;;4.80;;
75456;SDS011;64036;48.266;14.192;2023-05-29T05:03:35;6.30;;;4.60;;
75456;SDS011;64036;48.266;14.192;2023-05-29T05:06:01;7.50;;;3.90;;
75456;SDS011;64036;48.266;14.192;2023-05-29T05:08:31;10.30;;;4.60;;
75456;SDS011;64036;48.266;14.192;2023-05-29T05:10:59;8.20;;;4.80;;
75456;SDS011;64036;48.266;14.192;2023-05-29T05:13:26;7.70;;;4.50;;
75456;SDS011;64036;48.266;14.192;2023-05-29T05:15:52;10.20;;;4.50;;
75456;SDS011;64036;48.266;14.192;2023-05-29T05:18:18;7.30;;;4.60;;
75456;SDS011;64036;48.266;14.192;2023-05-29T05:20:44;10.50;;;4.90;;
75456;SDS011;64036;48.266;14.192;2023-05-29T05:23:10;7.90;;;4.70;;
75456;SDS011;64036;48.266;14.192;2023-05-29T05:25:36;8.80;;;4.90;;
75456;SDS011;64036;48.266;14.192;2023-05-29T05:28:04;11.20;;;4.80;;
75456;SDS011;64036;48.266;14.192;2023-05-29T05:30:30;8.70;;;4.30;;
75456;SDS011;64036;48.266;14.192;2023-05-29T05:32:57;7.30;;;4.50;;
75456;SDS011;64036;48.266;14.192;2023-05-29T05:35:24;6.40;;;4.20;;
75456;SDS011;64036;48.266;14.192;2023-05-29T05:37:49;7.30;;;4.40;;
75456;SDS011;64036;48.266;14.192;2023-05-29T05:40:15;7.10;;;4.50;;
75456;SDS011;64036;48.266;14.192;2023-05-29T05:42:41;7.70;;;3.90;;
75456;SDS011;64036;48.266;14.192;2023-05-29T05:45:07;8.40;;;4.50;;
75456;SDS011;64036;48.266;14.192;2023-05-29T05:47:34;7.10;;;4.10;;
75456;SDS011;64036;48.266;14.192;2023-05-29T05:49:59;6.70;;;4.10;;
75456;SDS011;64036;48.266;14.192;2023-05-29T05:52:25;6.70;;;4.20;;
75456;SDS011;64036;48.266;14.192;2023-05-29T05:54:56;6.70;;;4.20;;
75456;SDS011;64036;48.266;14.192;2023-05-29T05:57:22;7.60;;;4.70;;
75456;SDS011;64036;48.266;14.192;2023-05-29T05:59:48;8.40;;;4.30;;
75456;SDS011;64036;48.266;14.192;2023-05-29T06:02:13;9.00;;;4.90;;
75456;SDS011;64036;48.266;14.192;2023-05-29T06:04:40;10.00;;;5.70;;
75456;SDS011;64036;48.266;14.192;2023-05-29T06:07:06;12.30;;;5.60;;
75456;SDS011;64036;48.266;14.192;2023-05-29T06:09:32;10.90;;;5.70;;
75456;SDS011;64036;48.266;14.192;2023-05-29T06:11:58;9.60;;;5.50;;
75456;SDS011;64036;48.266;14.192;2023-05-29T06:14:24;10.30;;;4.90;;
75456;SDS011;64036;48.266;14.192;2023-05-29T06:16:50;10.60;;;6.20;;
75456;SDS011;64036;48.266;14.192;2023-05-29T06:19:16;9.30;;;5.10;;
75456;SDS011;64036;48.266;14.192;2023-05-29T06:21:41;8.00;;;5.20;;
75456;SDS011;64036;48.266;14.192;2023-05-29T06:24:07;10.10;;;5.10;;
75456;SDS011;64036;48.266;14.192;2023-05-29T06:26:33;7.70;;;4.60;;
75456;SDS011;64036;48.266;14.192;2023-05-29T06:28:58;9.40;;;4.80;;
75456;SDS011;64036;48.266;14.192;2023-05-29T06:31:24;9.20;;;4.70;;
75456;SDS011;64036;48.266;14.192;2023-05-29T06:33:49;8.60;;;4.30;;
75456;SDS011;64036;48.266;14.192;2023-05-29T06:36:15;7.90;;;4.70;;
75456;SDS011;64036;48.266;14.192;2023-05-29T06:38:46;8.50;;;4.70;;
75456;SDS011;64036;48.266;14.192;2023-05-29T06:41:13;8.30;;;4.70;;
75456;SDS011;64036;48.266;14.192;2023-05-29T06:43:39;6.40;;;4.20;;
75456;SDS011;64036;48.266;14.192;2023-05-29T06:46:04;7.00;;;4.20;;
75456;SDS011;64036;48.266;14.192;2023-05-29T06:48:34;6.60;;;4.40;;
75456;SDS011;64036;48.266;14.192;2023-05-29T06:51:00;8.30;;;4.00;;
75456;SDS011;64036;48.266;14.192;2023-05-29T06:53:26;6.70;;;3.90;;
75456;SDS011;64036;48.266;14.192;2023-05-29T06:55:52;6.70;;;3.70;;
75456;SDS011;64036;48.266;14.192;2023-05-29T06:58:18;7.30;;;3.70;;
75456;SDS011;64036;48.266;14.192;2023-05-29T07:00:44;6.10;;;3.80;;
75456;SDS011;64036;48.266;14.192;2023-05-29T07:03:10;7.50;;;4.00;;
75456;SDS011;64036;48.266;14.192;2023-05-29T07:05:35;6.70;;;3.90;;
75456;SDS011;64036;48.266;14.192;2023-05-29T07:08:01;6.90;;;4.10;;
75456;SDS011;64036;48.266;14.192;2023-05-29T07:10:26;7.60;;;3.80;;
75456;SDS011;64036;48.266;14.192;2023-05-29T07:12:52;7.10;;;4.00;;
75456;SDS011;64036;48.266;14.192;2023-05-29T07:15:18;8.40;;;4.40;;
75456;SDS011;64036;48.266;14.192;2023-05-29T07:17:43;7.70;;;4.40;;
75456;SDS011;64036;48.266;14.192;2023-05-29T07:20:09;8.50;;;4.40;;
75456;SDS011;64036;48.266;14.192;2023-05-29T07:22:35;7.80;;;4.30;;
75456;SDS011;64036;48.266;14.192;2023-05-29T07:25:01;8.40;;;4.20;;
75456;SDS011;64036;48.266;14.192;2023-05-29T07:27:28;7.20;;;3.90;;
75456;SDS011;64036;48.266;14.192;2023-05-29T07:29:54;5.90;;;3.70;;
75456;SDS011;64036;48.266;14.192;2023-05-29T07:32:20;7.20;;;3.50;;
75456;SDS011;64036;48.266;14.192;2023-05-29T07:34:47;6.80;;;4.30;;
75456;SDS011;64036;48.266;14.192;2023-05-29T07:37:15;8.60;;;3.60;;
75456;SDS011;64036;48.266;14.192;2023-05-29T07:39:40;7.60;;;3.80;;
75456;SDS011;64036;48.266;14.192;2023-05-29T07:42:06;7.80;;;3.90;;
75456;SDS011;64036;48.266;14.192;2023-05-29T07:44:32;6.10;;;3.50;;
75456;SDS011;64036;48.266;14.192;2023-05-29T07:46:57;9.10;;;3.90;;
75456;SDS011;64036;48.266;14.192;2023-05-29T07:49:23;7.70;;;4.10;;
75456;SDS011;64036;48.266;14.192;2023-05-29T07:51:48;5.70;;;3.30;;
75456;SDS011;64036;48.266;14.192;2023-05-29T07:54:14;8.60;;;4.10;;
75456;SDS011;64036;48.266;14.192;2023-05-29T07:56:43;6.30;;;3.10;;
75456;SDS011;64036;48.266;14.192;2023-05-29T07:59:09;6.00;;;3.00;;
75456;SDS011;64036;48.266;14.192;2023-05-29T08:01:35;7.10;;;2.90;;
75456;SDS011;64036;48.266;14.192;2023-05-29T08:04:02;4.50;;;2.60;;
75456;SDS011;64036;48.266;14.192;2023-05-29T08:06:28;5.40;;;2.90;;
75456;SDS011;64036;48.266;14.192;2023-05-29T08:08:53;7.30;;;2.80;;
75456;SDS011;64036;48.266;14.192;2023-05-29T08:11:19;5.90;;;2.70;;
75456;SDS011;64036;48.266;14.192;2023-05-29T08:13:45;4.80;;;2.70;;
75456;SDS011;64036;48.266;14.192;2023-05-29T08:16:11;5.40;;;2.90;;
75456;SDS011;64036;48.266;14.192;2023-05-29T08:18:39;4.10;;;2.40;;
75456;SDS011;64036;48.266;14.192;2023-05-29T08:21:04;4.40;;;2.50;;
75456;SDS011;64036;48.266;14.192;2023-05-29T08:23:30;4.00;;;2.30;;
75456;SDS011;64036;48.266;14.192;2023-05-29T08:25:57;4.40;;;2.40;;
75456;SDS011;64036;48.266;14.192;2023-05-29T08:28:22;4.70;;;2.30;;
75456;SDS011;64036;48.266;14.192;2023-05-29T08:30:48;8.10;;;2.80;;
75456;SDS011;64036;48.266;14.192;2023-05-29T08:33:13;5.70;;;2.80;;
75456;SDS011;64036;48.266;14.192;2023-05-29T08:35:39;5.90;;;3.00;;
75456;SDS011;64036;48.266;14.192;2023-05-29T08:38:04;5.70;;;2.80;;
75456;SDS011;64036;48.266;14.192;2023-05-29T08:40:31;5.80;;;2.80;;
75456;SDS011;64036;48.266;14.192;2023-05-29T08:43:00;4.60;;;2.60;;
75456;SDS011;64036;48.266;14.192;2023-05-29T08:45:33;5.90;;;2.50;;
75456;SDS011;64036;48.266;14.192;2023-05-29T08:48:00;5.70;;;2.40;;
75456;SDS011;64036;48.266;14.192;2023-05-29T08:50:26;6.40;;;2.80;;
75456;SDS011;64036;48.266;14.192;2023-05-29T08:52:52;4.90;;;2.30;;
75456;SDS011;64036;48.266;14.192;2023-05-29T08:55:18;8.00;;;3.10;;
75456;SDS011;64036;48.266;14.192;2023-05-29T08:57:44;4.50;;;2.80;;
75456;SDS011;64036;48.266;14.192;2023-05-29T09:00:15;6.30;;;2.90;;
75456;SDS011;64036;48.266;14.192;2023-05-29T09:02:43;4.60;;;2.50;;
75456;SDS011;64036;48.266;14.192;2023-05-29T09:05:09;5.90;;;2.80;;
75456;SDS011;64036;48.266;14.192;2023-05-29T09:07:36;7.10;;;2.60;;
75456;SDS011;64036;48.266;14.192;2023-05-29T09:10:06;7.80;;;5.20;;
75456;SDS011;64036;48.266;14.192;2023-05-29T09:12:33;6.30;;;4.30;;
75456;SDS011;64036;48.266;14.192;2023-05-29T09:15:00;5.00;;;2.70;;
75456;SDS011;64036;48.266;14.192;2023-05-29T09:17:33;4.50;;;2.60;;
75456;SDS011;64036;48.266;14.192;2023-05-29T09:19:59;5.10;;;2.50;;
75456;SDS011;64036;48.266;14.192;2023-05-29T09:22:26;5.00;;;2.60;;
75456;SDS011;64036;48.266;14.192;2023-05-29T09:24:51;6.20;;;2.70;;
75456;SDS011;64036;48.266;14.192;2023-05-29T09:27:18;4.30;;;2.60;;
75456;SDS011;64036;48.266;14.192;2023-05-29T09:29:45;3.80;;;2.60;;
75456;SDS011;64036;48.266;14.192;2023-05-29T09:32:13;6.20;;;2.70;;
75456;SDS011;64036;48.266;14.192;2023-05-29T09:34:43;5.30;;;2.70;;
75456;SDS011;64036;48.266;14.192;2023-05-29T09:37:10;3.80;;;2.60;;
75456;SDS011;64036;48.266;14.192;2023-05-29T09:39:50;6.60;;;3.00;;
75456;SDS011;64036;48.266;14.192;2023-05-29T09:42:19;5.00;;;2.60;;
75456;SDS011;64036;48.266;14.192;2023-05-29T09:44:48;5.20;;;3.00;;
75456;SDS011;64036;48.266;14.192;2023-05-29T09:47:17;5.70;;;2.90;;
75456;SDS011;64036;48.266;14.192;2023-05-29T09:49:44;6.30;;;3.30;;
75456;SDS011;64036;48.266;14.192;2023-05-29T09:52:12;6.10;;;2.80;;
75456;SDS011;64036;48.266;14.192;2023-05-29T09:57:12;7.20;;;3.20;;
75456;SDS011;64036;48.266;14.192;2023-05-29T09:59:41;6.30;;;3.00;;
75456;SDS011;64036;48.266;14.192;2023-05-29T10:04:38;5.90;;;2.50;;
75456;SDS011;64036;48.266;14.192;2023-05-29T10:07:15;4.40;;;2.60;;
75456;SDS011;64036;48.266;14.192;2023-05-29T10:09:47;5.00;;;2.80;;
75456;SDS011;64036;48.266;14.192;2023-05-29T10:12:19;5.70;;;3.00;;
75456;SDS011;64036;48.266;14.192;2023-05-29T10:14:49;4.30;;;2.70;;
75456;SDS011;64036;48.266;14.192;2023-05-29T10:17:18;4.40;;;2.60;;
75456;SDS011;64036;48.266;14.192;2023-05-29T10:19:48;6.60;;;3.20;;
75456;SDS011;64036;48.266;14.192;2023-05-29T10:22:19;6.20;;;3.00;;
75456;SDS011;64036;48.266;14.192;2023-05-29T10:24:48;5.80;;;3.30;;
75456;SDS011;64036;48.266;14.192;2023-05-29T10:27:15;5.60;;;2.80;;
75456;SDS011;64036;48.266;14.192;2023-05-29T10:29:56;6.30;;;3.40;;
75456;SDS011;64036;48.266;14.192;2023-05-29T10:35:40;6.00;;;3.90;;
75456;SDS011;64036;48.266;14.192;2023-05-29T10:38:15;6.80;;;3.90;;
75456;SDS011;64036;48.266;14.192;2023-05-29T10:40:45;6.70;;;3.30;;
75456;SDS011;64036;48.266;14.192;2023-05-29T10:43:34;6.10;;;3.10;;
75456;SDS011;64036;48.266;14.192;2023-05-29T10:46:01;5.80;;;3.10;;
75456;SDS011;64036;48.266;14.192;2023-05-29T10:50:56;5.50;;;3.10;;
75456;SDS011;64036;48.266;14.192;2023-05-29T10:53:26;5.90;;;3.30;;
75456;SDS011;64036;48.266;14.192;2023-05-29T10:55:59;6.10;;;3.20;;
75456;SDS011;64036;48.266;14.192;2023-05-29T10:58:26;6.90;;;3.30;;
75456;SDS011;64036;48.266;14.192;2023-05-29T11:00:55;6.20;;;3.10;;
75456;SDS011;64036;48.266;14.192;2023-05-29T11:03:30;5.20;;;3.00;;
75456;SDS011;64036;48.266;14.192;2023-05-29T11:06:00;5.30;;;3.00;;
75456;SDS011;64036;48.266;14.192;2023-05-29T11:11:12;6.90;;;3.60;;
75456;SDS011;64036;48.266;14.192;2023-05-29T11:13:51;7.30;;;3.00;;
75456;SDS011;64036;48.266;14.192;2023-05-29T11:18:51;6.60;;;3.30;;
75456;SDS011;64036;48.266;14.192;2023-05-29T11:24:00;6.30;;;3.40;;
75456;SDS011;64036;48.266;14.192;2023-05-29T11:26:35;7.50;;;3.40;;
75456;SDS011;64036;48.266;14.192;2023-05-29T11:29:06;5.90;;;2.70;;
75456;SDS011;64036;48.266;14.192;2023-05-29T11:31:36;5.40;;;3.00;;
75456;SDS011;64036;48.266;14.192;2023-05-29T11:34:03;6.40;;;3.30;;
75456;SDS011;64036;48.266;14.192;2023-05-29T11:36:32;6.50;;;3.20;;
75456;SDS011;64036;48.266;14.192;2023-05-29T11:38:58;6.80;;;3.10;;
75456;SDS011;64036;48.266;14.192;2023-05-29T11:41:26;6.20;;;3.30;;
75456;SDS011;64036;48.266;14.192;2023-05-29T11:43:59;6.20;;;2.80;;
75456;SDS011;64036;48.266;14.192;2023-05-29T11:46:28;5.20;;;2.90;;
75456;SDS011;64036;48.266;14.192;2023-05-29T11:48:58;5.80;;;3.20;;
75456;SDS011;64036;48.266;14.192;2023-05-29T11:51:25;7.00;;;3.40;;
75456;SDS011;64036;48.266;14.192;2023-05-29T11:53:51;6.30;;;3.00;;
75456;SDS011;64036;48.266;14.192;2023-05-29T11:56:26;6.20;;;3.10;;
75456;SDS011;64036;48.266;14.192;2023-05-29T11:58:56;6.20;;;3.10;;
75456;SDS011;64036;48.266;14.192;2023-05-29T12:01:25;5.70;;;2.90;;
75456;SDS011;64036;48.266;14.192;2023-05-29T12:03:52;6.30;;;3.00;;
75456;SDS011;64036;48.266;14.192;2023-05-29T12:06:31;7.60;;;3.40;;
75456;SDS011;64036;48.266;14.192;2023-05-29T12:11:24;6.50;;;3.40;;
75456;SDS011;64036;48.266;14.192;2023-05-29T12:14:00;5.30;;;2.80;;
75456;SDS011;64036;48.266;14.192;2023-05-29T12:16:28;6.80;;;2.90;;
75456;SDS011;64036;48.266;14.192;2023-05-29T12:18:56;5.90;;;3.30;;
75456;SDS011;64036;48.266;14.192;2023-05-29T12:21:22;8.20;;;3.60;;
75456;SDS011;64036;48.266;14.192;2023-05-29T12:23:52;6.40;;;3.30;;
75456;SDS011;64036;48.266;14.192;2023-05-29T12:26:21;5.90;;;3.00;;
75456;SDS011;64036;48.266;14.192;2023-05-29T12:28:50;6.30;;;3.00;;
75456;SDS011;64036;48.266;14.192;2023-05-29T12:31:27;3.90;;;2.60;;
75456;SDS011;64036;48.266;14.192;2023-05-29T12:33:59;5.70;;;3.00;;
75456;SDS011;64036;48.266;14.192;2023-05-29T12:36:26;24.40;;;22.40;;
75456;SDS011;64036;48.266;14.192;2023-05-29T12:38:52;35.50;;;32.60;;
75456;SDS011;64036;48.266;14.192;2023-05-29T12:41:28;7.80;;;6.20;;
75456;SDS011;64036;48.266;14.192;2023-05-29T12:43:56;6.50;;;4.80;;
75456;SDS011;64036;48.266;14.192;2023-05-29T12:46:26;6.90;;;3.60;;
75456;SDS011;64036;48.266;14.192;2023-05-29T12:48:55;4.70;;;3.00;;
75456;SDS011;64036;48.266;14.192;2023-05-29T12:51:26;7.70;;;3.20;;
75456;SDS011;64036;48.266;14.192;2023-05-29T12:53:52;5.90;;;3.30;;
75456;SDS011;64036;48.266;14.192;2023-05-29T12:56:24;6.30;;;3.10;;
75456;SDS011;64036;48.266;14.192;2023-05-29T12:58:52;7.10;;;3.50;;
75456;SDS011;64036;48.266;14.192;2023-05-29T13:01:18;7.00;;;3.60;;
75456;SDS011;64036;48.266;14.192;2023-05-29T13:03:44;6.90;;;3.50;;
75456;SDS011;64036;48.266;14.192;2023-05-29T13:06:10;7.10;;;3.10;;
75456;SDS011;64036;48.266;14.192;2023-05-29T13:08:36;7.90;;;5.40;;
75456;SDS011;64036;48.266;14.192;2023-05-29T13:11:02;6.30;;;3.80;;
75456;SDS011;64036;48.266;14.192;2023-05-29T13:13:27;5.80;;;3.20;;
75456;SDS011;64036;48.266;14.192;2023-05-29T13:15:53;4.80;;;2.70;;
75456;SDS011;64036;48.266;14.192;2023-05-29T13:18:19;7.00;;;3.60;;
75456;SDS011;64036;48.266;14.192;2023-05-29T13:20:44;7.50;;;3.60;;
75456;SDS011;64036;48.266;14.192;2023-05-29T13:23:10;8.70;;;5.60;;
75456;SDS011;64036;48.266;14.192;2023-05-29T13:25:35;32.70;;;25.00;;
75456;SDS011;64036;48.266;14.192;2023-05-29T13:28:01;30.20;;;21.70;;
75456;SDS011;64036;48.266;14.192;2023-05-29T13:30:27;51.50;;;33.50;;
75456;SDS011;64036;48.266;14.192;2023-05-29T13:32:53;13.70;;;9.60;;
75456;SDS011;64036;48.266;14.192;2023-05-29T13:35:19;7.60;;;4.60;;
75456;SDS011;64036;48.266;14.192;2023-05-29T13:37:45;5.90;;;3.50;;
75456;SDS011;64036;48.266;14.192;2023-05-29T13:40:12;6.00;;;3.50;;
75456;SDS011;64036;48.266;14.192;2023-05-29T13:42:39;5.30;;;3.30;;
75456;SDS011;64036;48.266;14.192;2023-05-29T13:45:05;5.00;;;2.80;;
75456;SDS011;64036;48.266;14.192;2023-05-29T13:47:32;5.80;;;3.00;;
75456;SDS011;64036;48.266;14.192;2023-05-29T13:49:59;15.10;;;10.30;;
75456;SDS011;64036;48.266;14.192;2023-05-29T13:52:25;17.10;;;13.00;;
75456;SDS011;64036;48.266;14.192;2023-05-29T13:54:52;8.70;;;5.10;;
75456;SDS011;64036;48.266;14.192;2023-05-29T13:57:18;11.70;;;8.20;;
75456;SDS011;64036;48.266;14.192;2023-05-29T13:59:43;7.30;;;4.40;;
75456;SDS011;64036;48.266;14.192;2023-05-29T14:02:09;8.90;;;3.60;;
75456;SDS011;64036;48.266;14.192;2023-05-29T14:04:34;7.70;;;4.30;;
75456;SDS011;64036;48.266;14.192;2023-05-29T14:07:00;8.90;;;5.90;;
75456;SDS011;64036;48.266;14.192;2023-05-29T14:09:26;15.00;;;13.20;;
75456;SDS011;64036;48.266;14.192;2023-05-29T14:11:57;9.80;;;6.90;;
75456;SDS011;64036;48.266;14.192;2023-05-29T14:14:24;13.50;;;8.70;;
75456;SDS011;64036;48.266;14.192;2023-05-29T14:16:51;8.50;;;4.90;;
75456;SDS011;64036;48.266;14.192;2023-05-29T14:19:17;7.80;;;4.10;;
75456;SDS011;64036;48.266;14.192;2023-05-29T14:21:44;6.40;;;3.70;;
75456;SDS011;64036;48.266;14.192;2023-05-29T14:24:10;5.70;;;3.00;;
75456;SDS011;64036;48.266;14.192;2023-05-29T14:26:36;6.40;;;3.70;;
75456;SDS011;64036;48.266;14.192;2023-05-29T14:29:02;5.60;;;3.20;;
75456;SDS011;64036;48.266;14.192;2023-05-29T14:31:28;5.80;;;3.30;;
75456;SDS011;64036;48.266;14.192;2023-05-29T14:33:54;5.60;;;3.10;;
75456;SDS011;64036;48.266;14.192;2023-05-29T14:36:19;6.50;;;3.40;;
75456;SDS011;64036;48.266;14.192;2023-05-29T14:38:45;5.90;;;3.10;;
75456;SDS011;64036;48.266;14.192;2023-05-29T14:41:13;5.60;;;2.90;;
75456;SDS011;64036;48.266;14.192;2023-05-29T14:43:40;5.90;;;2.80;;
75456;SDS011;64036;48.266;14.192;2023-05-29T14:46:06;5.30;;;3.00;;
75456;SDS011;64036;48.266;14.192;2023-05-29T14:48:32;4.90;;;2.90;;
75456;SDS011;64036;48.266;14.192;2023-05-29T14:50:58;5.40;;;3.10;;
75456;SDS011;64036;48.266;14.192;2023-05-29T14:53:23;6.40;;;3.30;;
75456;SDS011;64036;48.266;14.192;2023-05-29T14:55:49;5.70;;;3.30;;
75456;SDS011;64036;48.266;14.192;2023-05-29T14:58:15;5.20;;;2.60;;
75456;SDS011;64036;48.266;14.192;2023-05-29T15:00:40;6.90;;;3.30;;
75456;SDS011;64036;48.266;14.192;2023-05-29T15:03:06;5.60;;;2.90;;
75456;SDS011;64036;48.266;14.192;2023-05-29T15:05:31;5.90;;;2.80;;
75456;SDS011;64036;48.266;14.192;2023-05-29T15:07:57;5.40;;;3.00;;
75456;SDS011;64036;48.266;14.192;2023-05-29T15:10:25;6.20;;;3.10;;
75456;SDS011;64036;48.266;14.192;2023-05-29T15:12:54;6.80;;;3.00;;